Time;durP1;ratioP1;P1;durP2;ratioP2;P2;SDS_P1;SDS_P2;PMS_P1;PMS_P2;Temp;Humidity;BMP_temperature;BMP_pressure;BME280_temperature;BME280_humidity;BME280_pressure;Samples;Min_cycle;Max_cycle;Signal;HPM_P1;HPM_P2
2022/06/28 00:01:42;;;;;;;2.95;0.40;;;;;;;15.04;100.00;102002.59;5010167;28;20052;-32
2022/06/28 00:04:12;;;;;;;2.80;0.47;;;;;;;15.06;100.00;101999.50;5011466;28;20199;-31
2022/06/28 00:06:40;;;;;;;2.85;0.60;;;;;;;15.06;100.00;102005.13;5012921;28;20058;-32
2022/06/28 00:09:08;;;;;;;4.50;0.85;;;;;;;15.05;100.00;102007.09;5011431;28;20048;-33
2022/06/28 00:11:36;;;;;;;3.08;0.50;;;;;;;15.07;100.00;102002.00;5012443;28;20056;-35
2022/06/28 00:16:04;;;;;;;2.67;0.50;;;;;;;15.07;100.00;102009.59;5012131;28;20038;-36
2022/06/28 00:16:55;;;;;;;2.80;0.50;;;;;;;15.08;100.00;102014.09;5011415;28;20041;-32
2022/06/28 00:19:25;;;;;;;2.95;0.63;;;;;;;15.11;100.00;102005.06;5011858;28;20038;-30
2022/06/28 00:21:53;;;;;;;3.80;0.55;;;;;;;15.12;100.00;102009.53;5012110;28;20060;-35
2022/06/28 00:24:21;;;;;;;4.65;0.60;;;;;;;15.14;100.00;102008.09;5011247;28;20045;-29
2022/06/28 00:26:49;;;;;;;3.38;0.52;;;;;;;15.18;100.00;102002.72;5011736;28;20046;-33
2022/06/28 00:29:17;;;;;;;3.25;0.75;;;;;;;15.21;100.00;102002.09;5011056;28;20053;-31
2022/06/28 00:31:45;;;;;;;3.90;1.05;;;;;;;15.24;100.00;102009.91;5010691;28;20060;-31
2022/06/28 00:34:13;;;;;;;6.15;0.80;;;;;;;15.26;100.00;102004.84;5011770;28;20297;-29
2022/06/28 00:36:42;;;;;;;3.38;0.60;;;;;;;15.28;100.00;102005.38;5011032;28;20060;-30
2022/06/28 00:39:10;;;;;;;3.13;0.65;;;;;;;15.30;100.00;102008.72;5011660;28;20137;-35
2022/06/28 00:41:39;;;;;;;3.15;0.70;;;;;;;15.30;100.00;102011.53;5010207;28;20052;-36
2022/06/28 00:44:07;;;;;;;2.90;0.57;;;;;;;15.32;100.00;102008.41;5010865;28;20487;-29
2022/06/28 00:46:34;;;;;;;5.63;0.80;;;;;;;15.33;100.00;102010.09;5011207;28;20042;-31
2022/06/28 00:49:03;;;;;;;4.72;0.80;;;;;;;15.31;100.00;102013.22;5011092;28;20128;-34
2022/06/28 00:51:31;;;;;;;4.30;1.48;;;;;;;15.32;100.00;102009.25;5009651;28;20050;-28
2022/06/28 00:54:01;;;;;;;4.47;0.73;;;;;;;15.34;100.00;102015.41;5010882;28;20081;-29
2022/06/28 00:56:29;;;;;;;6.97;0.90;;;;;;;15.33;100.00;102016.56;5019122;28;20056;-29
2022/06/28 00:58:57;;;;;;;6.03;1.08;;;;;;;15.35;100.00;102013.44;5010177;28;20088;-33
2022/06/28 01:01:26;;;;;;;6.78;1.05;;;;;;;15.34;100.00;102021.03;5010412;28;20054;-31
2022/06/28 01:03:55;;;;;;;8.15;0.88;;;;;;;15.32;100.00;102014.88;5010657;28;20495;-29
2022/06/28 01:06:24;;;;;;;4.25;0.80;;;;;;;15.32;100.00;102014.88;5008159;28;20046;-29
2022/06/28 01:08:52;;;;;;;5.18;0.90;;;;;;;15.31;100.00;102013.22;5014572;28;20100;-31
2022/06/28 01:11:28;;;;;;;7.30;0.90;;;;;;;15.33;100.00;102013.75;5008201;28;20086;-29
2022/06/28 01:14:01;;;;;;;5.18;1.10;;;;;;;15.33;100.00;102018.53;5006844;28;20049;-34
2022/06/28 01:16:41;;;;;;;5.85;0.80;;;;;;;15.31;100.00;102018.00;5009008;28;20056;-31
2022/06/28 01:19:16;;;;;;;7.05;1.00;;;;;;;15.32;100.00;102014.03;5000162;28;20055;-34
2022/06/28 01:21:49;;;;;;;7.40;0.90;;;;;;;15.37;100.00;102016.78;4999440;28;20072;-31
2022/06/28 01:24:20;;;;;;;;;;;;;;;15.36;100.00;102015.94;5009624;28;20046;-29
2022/06/28 01:26:54;;;;;;;7.05;1.00;;;;;;;15.39;100.00;102017.28;5022108;28;19921;-30
2022/06/28 01:29:23;;;;;;;6.60;1.08;;;;;;;15.47;100.00;102011.00;5010336;28;20054;-26
2022/06/28 01:32:11;;;;;;;9.23;1.30;;;;;;;15.49;100.00;102015.19;5003050;28;20049;-33
2022/06/28 01:34:39;;;;;;;7.22;1.58;;;;;;;15.52;100.00;102013.75;5008056;28;20137;-34
2022/06/28 01:37:08;;;;;;;9.30;1.10;;;;;;;15.49;100.00;102015.19;5002908;28;20038;-30
2022/06/28 01:39:38;;;;;;;7.72;0.90;;;;;;;15.49;100.00;102009.56;4995065;28;20077;-34
2022/06/28 01:42:06;;;;;;;6.13;1.23;;;;;;;15.47;100.00;102023.09;5009646;28;20764;-29
2022/06/28 01:44:42;;;;;;;6.65;1.25;;;;;;;15.44;100.00;102023.69;5008424;28;20045;-30
2022/06/28 01:47:28;;;;;;;4.93;0.93;;;;;;;15.40;100.00;102027.41;5009248;28;20387;-32
2022/06/28 01:50:03;;;;;;;5.43;1.05;;;;;;;15.39;100.00;102023.75;4971355;28;1066844;-28
2022/06/28 01:52:40;;;;;;;7.10;1.50;;;;;;;15.38;100.00;102024.94;5009259;28;20053;-32
2022/06/28 01:55:26;;;;;;;5.75;1.33;;;;;;;15.36;100.00;102024.38;5010254;28;20077;-30
2022/06/28 01:57:55;;;;;;;7.68;1.10;;;;;;;15.36;100.00;102035.66;5013119;28;20045;-29
2022/06/28 02:00:23;;;;;;;5.55;1.10;;;;;;;15.32;100.00;102031.75;5010167;28;20557;-31
2022/06/28 02:02:55;;;;;;;4.45;0.82;;;;;;;15.33;100.00;102027.81;4999241;28;20046;-33
2022/06/28 02:05:30;;;;;;;6.00;1.00;;;;;;;15.34;100.00;102028.66;5011726;28;20449;-35
2022/06/28 02:07:58;;;;;;;4.80;0.95;;;;;;;15.34;100.00;102031.47;5013889;28;20154;-34
2022/06/28 02:10:34;;;;;;;6.53;1.10;;;;;;;15.33;100.00;102033.44;5012977;28;20057;-31
2022/06/28 02:13:02;;;;;;;6.30;1.08;;;;;;;15.33;100.00;102036.25;5014529;28;20073;-27
2022/06/28 02:15:30;;;;;;;7.88;1.02;;;;;;;15.32;100.00;102036.53;5008180;28;20133;-38
2022/06/28 02:18:00;;;;;;;6.43;1.02;;;;;;;15.31;100.00;102032.91;4998262;28;20050;-35
2022/06/28 02:20:29;;;;;;;9.52;1.15;;;;;;;15.29;100.00;102035.16;5012836;28;20046;-32
2022/06/28 02:22:57;;;;;;;5.82;1.02;;;;;;;15.29;100.00;102037.16;5013571;28;20100;-33
2022/06/28 02:25:25;;;;;;;7.03;1.13;;;;;;;15.29;100.00;102042.78;5006220;28;20051;-32
2022/06/28 02:27:54;;;;;;;5.60;1.00;;;;;;;15.28;100.00;102044.75;4995283;28;20046;-32
2022/06/28 02:30:22;;;;;;;4.85;0.93;;;;;;;15.27;100.00;102042.22;5018000;28;20423;-34
2022/06/28 02:32:51;;;;;;;5.45;0.90;;;;;;;15.26;100.00;102044.22;5013989;28;20538;-33
2022/06/28 02:40:50;;;;;;;7.65;1.45;;;;;;;15.22;100.00;102045.94;5012554;28;20046;-32
2022/06/28 02:43:19;;;;;;;10.77;1.40;;;;;;;15.23;100.00;102044.81;5013366;28;20065;-26
2022/06/28 02:45:47;;;;;;;8.07;1.30;;;;;;;15.22;100.00;102048.75;5013851;28;20042;-29
2022/06/28 02:48:15;;;;;;;5.93;1.13;;;;;;;15.23;100.00;102053.25;5009275;28;20495;-31
2022/06/28 02:50:43;;;;;;;8.30;1.23;;;;;;;15.22;100.00;102054.38;5009796;28;20108;-30
2022/06/28 02:53:11;;;;;;;6.07;1.10;;;;;;;15.22;100.00;102050.72;5014014;28;20054;-30
2022/06/28 02:55:38;;;;;;;8.68;1.40;;;;;;;15.21;100.00;102061.13;5013514;28;20483;-34
2022/06/28 02:58:07;;;;;;;4.88;0.90;;;;;;;15.21;100.00;102047.06;5013156;28;20498;-32
2022/06/28 03:00:36;;;;;;;10.88;1.92;;;;;;;15.23;100.00;102047.63;5022624;28;20050;-31
2022/06/28 03:03:04;;;;;;;7.35;1.40;;;;;;;15.21;100.00;102049.88;5020613;28;20050;-31
2022/06/28 03:05:32;;;;;;;6.97;1.00;;;;;;;15.22;100.00;102057.19;5001843;28;20055;-35
2022/06/28 03:08:08;;;;;;;8.48;1.23;;;;;;;15.21;100.00;102055.50;5004201;28;20074;-33
2022/06/28 03:10:37;;;;;;;10.45;1.20;;;;;;;15.20;100.00;102053.00;5003052;28;20504;-33
2022/06/28 03:13:05;;;;;;;9.48;1.48;;;;;;;15.20;100.00;102053.00;5010851;28;20045;-31
2022/06/28 03:15:33;;;;;;;3.55;1.00;;;;;;;15.21;100.00;102055.50;5016027;28;20049;-29
2022/06/28 03:18:02;;;;;;;8.57;1.38;;;;;;;15.19;100.00;102056.97;5016181;28;20053;-35
2022/06/28 03:20:31;;;;;;;7.13;1.10;;;;;;;15.18;100.00;102058.97;5009543;28;20502;-35
2022/06/28 03:22:59;;;;;;;7.80;1.35;;;;;;;15.18;100.00;102060.94;5019863;28;20089;-33
2022/06/28 03:25:28;;;;;;;6.47;1.27;;;;;;;15.18;100.00;102064.56;5004232;28;20140;-31
2022/06/28 03:27:56;;;;;;;8.40;1.23;;;;;;;15.17;100.00;102068.53;5011347;28;20070;-31
2022/06/28 03:30:24;;;;;;;8.73;1.30;;;;;;;15.18;100.00;102066.56;5006216;28;20411;-29
2022/06/28 03:32:52;;;;;;;6.25;1.25;;;;;;;15.16;100.00;102078.09;5010308;28;20125;-35
2022/06/28 03:35:27;;;;;;;7.82;1.27;;;;;;;15.16;100.00;102075.28;5013012;28;20137;-32
2022/06/28 03:37:56;;;;;;;7.45;1.35;;;;;;;15.14;100.00;102075.59;5012889;28;20052;-29
2022/06/28 03:40:43;;;;;;;6.20;1.35;;;;;;;15.13;100.00;102081.50;5010673;28;20128;-36
2022/06/28 03:43:11;;;;;;;7.85;1.60;;;;;;;15.14;100.00;102088.81;5011373;28;20655;-28
2022/06/28 03:45:39;;;;;;;8.05;1.20;;;;;;;15.15;100.00;102093.28;5012785;28;20483;-33
2022/06/28 03:48:26;;;;;;;8.95;1.65;;;;;;;15.12;100.00;102089.09;5010354;28;20050;-34
2022/06/28 03:51:17;;;;;;;6.38;1.23;;;;;;;15.14;100.00;102094.44;5012252;28;20076;-29
2022/06/28 03:54:06;;;;;;;9.65;1.42;;;;;;;15.15;100.00;102084.84;5011882;28;20042;-33
2022/06/28 03:56:42;;;;;;;4.80;0.90;;;;;;;15.19;100.00;102091.53;5011329;28;20058;-33
2022/06/28 03:59:11;;;;;;;7.00;1.35;;;;;;;15.20;100.00;102089.56;5011281;28;20056;-29
2022/06/28 04:01:39;;;;;;;6.72;1.42;;;;;;;15.21;100.00;102088.41;5006085;28;20511;-29
2022/06/28 04:04:07;;;;;;;7.93;1.58;;;;;;;15.19;100.00;102087.91;5012633;28;20073;-34
2022/06/28 04:06:40;;;;;;;5.15;1.13;;;;;;;15.17;100.00;102085.41;5011260;28;20099;-29
2022/06/28 04:09:08;;;;;;;5.68;1.25;;;;;;;15.18;100.00;102084.25;5023482;28;20089;-26
2022/06/28 04:11:36;;;;;;;5.32;1.17;;;;;;;15.18;100.00;102080.63;5011317;28;20137;-28
2022/06/28 04:14:04;;;;;;;7.45;1.10;;;;;;;15.18;100.00;102089.88;5010645;28;20050;-30
2022/06/28 04:16:32;;;;;;;7.32;1.30;;;;;;;15.19;100.00;102097.16;5010125;28;20053;-35
2022/06/28 04:19:03;;;;;;;5.37;1.07;;;;;;;15.21;100.00;102091.22;4999899;28;20406;-29
2022/06/28 04:21:40;;;;;;;7.28;1.10;;;;;;;15.21;100.00;102092.06;4991137;28;20099;-28
2022/06/28 04:24:15;;;;;;;8.02;1.30;;;;;;;15.22;100.00;102098.53;5000127;28;20046;-30
2022/06/28 04:26:55;;;;;;;5.10;1.00;;;;;;;15.22;100.00;102099.38;5009266;28;20050;-31
2022/06/28 04:29:27;;;;;;;9.07;1.23;;;;;;;15.24;100.00;102099.91;5006716;28;20145;-33
2022/06/28 04:31:55;;;;;;;4.10;0.80;;;;;;;15.27;100.00;102096.50;5010571;28;20061;-32
2022/06/28 04:34:23;;;;;;;8.13;1.27;;;;;;;15.32;100.00;102099.25;5010276;28;20132;-30
2022/06/28 04:36:56;;;;;;;;;;;;;;;15.31;100.00;102097.56;5010425;28;20049;-33
2022/06/28 04:39:25;;;;;;;5.95;1.10;;;;;;;15.31;100.00;102094.78;5009973;28;19925;-32
2022/06/28 04:42:11;;;;;;;8.27;1.10;;;;;;;15.36;100.00;102100.34;5007402;28;20046;-30
2022/06/28 04:44:39;;;;;;;8.70;1.58;;;;;;;15.40;100.00;102097.72;5009936;28;20053;-31
2022/06/28 04:47:10;;;;;;;8.80;1.50;;;;;;;15.42;100.00;102099.09;5020564;28;20469;-31
2022/06/28 04:49:40;;;;;;;7.30;1.30;;;;;;;15.47;100.00;102107.47;4996455;28;20054;-37
2022/06/28 04:52:10;;;;;;;3.97;0.77;;;;;;;15.50;100.00;102106.88;5004938;28;20107;-35
2022/06/28 04:54:42;;;;;;;6.40;1.08;;;;;;;15.50;100.00;102106.88;5009067;28;20502;-31
2022/06/28 04:57:20;;;;;;;6.07;1.33;;;;;;;15.53;100.00;102094.19;5014137;28;20053;-30
2022/06/28 05:00:12;;;;;;;6.63;1.10;;;;;;;15.55;100.00;102096.72;5010887;28;20046;-32
2022/06/28 05:02:43;;;;;;;8.30;1.40;;;;;;;15.60;100.00;102099.47;5009849;28;20073;-31
2022/06/28 05:05:32;;;;;;;5.82;1.10;;;;;;;15.61;100.00;102098.31;5009382;28;20049;-40
2022/06/28 05:08:01;;;;;;;5.15;1.38;;;;;;;15.64;100.00;102103.34;5009942;28;20073;-31
2022/06/28 05:10:38;;;;;;;8.05;1.15;;;;;;;15.59;100.00;102103.44;5008887;28;20132;-34
2022/06/28 05:13:24;;;;;;;6.45;1.00;;;;;;;15.56;100.00;102104.03;5009928;28;20138;-35
2022/06/28 05:15:52;;;;;;;8.55;1.40;;;;;;;15.57;100.00;102100.09;5009510;28;20518;-33
2022/06/28 05:18:20;;;;;;;4.97;1.20;;;;;;;15.55;100.00;102105.16;5009358;28;20054;-33
2022/06/28 05:20:48;;;;;;;5.50;1.00;;;;;;;15.54;100.00;102103.47;5018967;28;20133;-30
2022/06/28 05:23:18;;;;;;;4.50;0.93;;;;;;;15.53;100.00;102111.06;5010226;28;20054;-30
2022/06/28 05:26:05;;;;;;;8.63;1.30;;;;;;;15.56;100.00;102107.69;5009878;28;20581;-34
2022/06/28 05:28:39;;;;;;;3.95;1.05;;;;;;;15.58;100.00;102102.59;5009574;28;20058;-35
2022/06/28 05:31:07;;;;;;;7.43;1.20;;;;;;;15.61;100.00;102106.75;4997365;28;20046;-35
2022/06/28 05:33:36;;;;;;;5.85;1.02;;;;;;;15.63;100.00;102110.13;5004964;28;20676;-35
2022/06/28 05:36:04;;;;;;;7.90;1.00;;;;;;;15.68;100.00;102113.69;5009387;28;20057;-27
2022/06/28 05:38:33;;;;;;;4.18;1.20;;;;;;;15.72;100.00;102119.56;5011212;28;20060;-34
2022/06/28 05:41:02;;;;;;;5.25;1.15;;;;;;;15.73;100.00;102115.63;5011923;28;20180;-34
2022/06/28 05:43:30;;;;;;;3.65;0.90;;;;;;;15.74;100.00;102111.66;5016366;28;20062;-35
2022/06/28 05:45:57;;;;;;;3.33;0.90;;;;;;;15.78;100.00;102107.09;5006907;28;20817;-38
2022/06/28 05:48:25;;;;;;;3.65;0.93;;;;;;;15.81;100.00;102103.66;5005154;28;20105;-37
2022/06/28 05:50:53;;;;;;;3.90;0.88;;;;;;;15.86;100.00;102109.22;5000747;28;20133;-30
2022/06/28 05:53:22;;;;;;;6.72;1.10;;;;;;;15.91;100.00;102108.31;5007923;28;20085;-34
2022/06/28 05:55:51;;;;;;;5.13;0.93;;;;;;;15.94;100.00;102110.53;5022458;28;20160;-30
2022/06/28 05:58:20;;;;;;;7.07;1.30;;;;;;;15.95;100.00;102113.03;5008875;28;20053;-33
2022/06/28 06:00:49;;;;;;;4.70;1.10;;;;;;;15.98;100.00;102118.06;5008847;28;20038;-28
2022/06/28 06:03:17;;;;;;;6.00;1.00;;;;;;;16.01;100.00;102108.97;5019552;28;20046;-28
2022/06/28 06:05:45;;;;;;;4.35;1.08;;;;;;;16.04;100.00;102108.38;5009536;28;20209;-29
2022/06/28 06:08:13;;;;;;;4.30;0.77;;;;;;;16.06;100.00;102117.34;5007385;28;20038;-28
2022/06/28 06:10:42;;;;;;;4.40;0.98;;;;;;;16.12;100.00;102118.13;5008126;28;20049;-31
2022/06/28 06:13:12;;;;;;;4.20;1.30;;;;;;;16.18;100.00;102114.09;5008265;28;20053;-28
2022/06/28 06:15:41;;;;;;;4.85;0.90;;;;;;;16.22;100.00;102119.91;5006488;28;20141;-30
2022/06/28 06:18:09;;;;;;;5.18;0.80;;;;;;;16.28;98.69;102118.69;4996628;28;20053;-29
2022/06/28 06:20:36;;;;;;;3.25;0.88;;;;;;;16.35;98.26;102116.34;4989246;28;20144;-28
2022/06/28 06:23:05;;;;;;;7.63;0.95;;;;;;;16.44;97.58;102118.13;5007301;28;20555;-30
2022/06/28 06:26:02;;;;;;;4.18;0.85;;;;;;;16.54;96.21;102131.22;4992981;28;20065;-28
2022/06/28 06:28:32;;;;;;;6.13;1.33;;;;;;;16.65;95.28;102127.09;5007327;28;20050;-28
2022/06/28 06:31:00;;;;;;;3.55;0.90;;;;;;;16.77;94.33;102132.25;5009641;28;20050;-31
2022/06/28 06:33:54;;;;;;;5.10;1.10;;;;;;;16.94;92.26;102138.13;5007086;28;20157;-31
2022/06/28 06:36:35;;;;;;;4.22;0.95;;;;;;;17.17;91.93;102133.44;5008798;28;20049;-29
2022/06/28 06:39:05;;;;;;;4.55;0.75;;;;;;;17.50;90.65;102129.34;5011665;28;20042;-29
2022/06/28 06:41:33;;;;;;;4.40;0.80;;;;;;;17.86;89.04;102125.75;5010114;28;20046;-30
2022/06/28 06:44:03;;;;;;;3.78;0.75;;;;;;;18.31;87.74;102117.34;4999111;28;20138;-30
2022/06/28 06:46:33;;;;;;;;;;;;;;;18.75;85.30;102124.97;4993950;28;20054;-28
2022/06/28 06:49:01;;;;;;;4.30;0.98;;;;;;;19.26;83.96;102127.22;5010535;28;20348;-29
2022/06/28 06:51:31;;;;;;;5.05;1.05;;;;;;;19.70;81.40;102126.22;5007523;28;20080;-29
2022/06/28 06:53:59;;;;;;;5.43;1.02;;;;;;;20.17;79.13;102124.44;5009732;28;20050;-33
2022/06/28 06:56:27;;;;;;;5.00;0.73;;;;;;;20.57;73.90;102121.41;5011065;28;20046;-29
2022/06/28 06:58:55;;;;;;;3.67;0.80;;;;;;;20.91;71.87;102123.31;5012394;28;20077;-29
2022/06/28 07:01:29;;;;;;;3.45;0.80;;;;;;;21.47;69.16;102129.78;5008326;28;20096;-31
2022/06/28 07:04:19;;;;;;;4.70;0.85;;;;;;;21.76;67.32;102137.47;5008766;28;20066;-30
2022/06/28 07:06:48;;;;;;;3.17;0.82;;;;;;;22.11;65.03;102127.53;5012552;28;20081;-30
2022/06/28 07:09:16;;;;;;;3.60;0.70;;;;;;;22.41;63.65;102121.75;5012766;28;20406;-30
2022/06/28 07:11:44;;;;;;;5.22;0.98;;;;;;;22.79;64.66;102128.06;5011471;28;20049;-34
2022/06/28 07:14:12;;;;;;;3.88;1.00;;;;;;;23.12;60.63;102119.50;5011888;28;20099;-35
2022/06/28 07:16:41;;;;;;;4.60;0.85;;;;;;;23.35;59.03;102136.97;5012210;28;20077;-36
2022/06/28 07:19:09;;;;;;;4.97;1.17;;;;;;;23.49;60.02;102128.88;5012270;28;20046;-38
2022/06/28 07:21:37;;;;;;;4.13;0.90;;;;;;;23.92;58.36;102130.28;5013072;28;20057;-32
2022/06/28 07:24:05;;;;;;;4.60;0.95;;;;;;;24.26;53.92;102140.31;5022153;28;20057;-30
2022/06/28 07:26:35;;;;;;;4.40;0.90;;;;;;;24.52;52.69;102139.88;5009188;28;20465;-38
2022/06/28 07:29:03;;;;;;;5.15;1.40;;;;;;;24.46;51.24;102139.28;5005813;28;20093;-28
2022/06/28 07:31:36;;;;;;;6.03;1.10;;;;;;;24.38;51.15;102141.09;5011466;28;20104;-34
2022/06/28 07:34:06;;;;;;;4.88;0.93;;;;;;;24.41;52.98;102141.56;5011278;28;20307;-30
2022/06/28 07:36:35;;;;;;;3.70;0.90;;;;;;;24.76;50.68;102142.63;5005635;28;20046;-34
2022/06/28 07:39:03;;;;;;;6.60;1.00;;;;;;;24.58;50.14;102136.38;4998632;28;20145;-42
2022/06/28 07:41:49;;;;;;;7.18;1.20;;;;;;;24.46;52.44;102136.44;5011369;28;20124;-36
2022/06/28 07:44:44;;;;;;;4.40;1.13;;;;;;;24.83;54.39;102141.97;5012029;28;20650;-30
2022/06/28 07:47:12;;;;;;;5.25;1.20;;;;;;;25.40;53.86;102150.03;5002315;28;20140;-37
2022/06/28 07:52:36;;;;;;;4.75;1.27;;;;;;;25.53;51.98;102153.66;4998027;28;20061;-34
2022/06/28 07:55:11;;;;;;;6.65;1.63;;;;;;;25.25;52.77;102153.75;5001202;28;20558;-30
2022/06/28 07:57:59;;;;;;;6.25;1.25;;;;;;;25.23;55.35;102159.81;5003825;28;20066;-29
2022/06/28 08:00:30;;;;;;;9.23;1.67;;;;;;;25.38;56.84;102161.03;5009132;28;20117;-33
2022/06/28 08:03:23;;;;;;;5.18;1.30;;;;;;;25.65;55.88;102154.41;5009098;28;20100;-29
2022/06/28 08:05:53;;;;;;;6.15;1.23;;;;;;;25.80;56.88;102160.47;5019511;28;20065;-29
2022/06/28 08:08:24;;;;;;;5.97;1.77;;;;;;;25.99;56.42;102166.22;5009479;28;20065;-29
2022/06/28 08:10:53;;;;;;;5.50;1.13;;;;;;;25.85;56.36;102165.91;5001007;28;20050;-30
2022/06/28 08:13:23;;;;;;;5.07;1.17;;;;;;;25.87;57.00;102157.78;4989705;28;20085;-34
2022/06/28 08:15:50;;;;;;;5.72;1.30;;;;;;;25.97;55.58;102174.38;5003670;28;20076;-36
2022/06/28 08:18:20;;;;;;;7.28;1.20;;;;;;;25.98;55.25;102170.31;5006677;28;20052;-29
2022/06/28 08:20:48;;;;;;;7.10;1.52;;;;;;;25.57;56.11;102172.56;4999725;28;20049;-31
2022/06/28 08:23:18;;;;;;;6.32;1.80;;;;;;;25.18;58.18;102167.88;5015202;28;20100;-32
2022/06/28 08:25:47;;;;;;;6.38;1.92;;;;;;;25.30;59.63;102160.03;5009034;28;20091;-32
2022/06/28 08:28:15;;;;;;;6.55;1.63;;;;;;;25.44;58.28;102164.44;5003035;28;20047;-30
2022/06/28 08:30:43;;;;;;;6.60;1.30;;;;;;;25.45;57.72;102166.09;4997105;28;20409;-35
2022/06/28 08:33:12;;;;;;;6.18;1.33;;;;;;;25.66;57.75;102170.34;5009657;28;20041;-36
2022/06/28 08:35:41;;;;;;;6.78;1.20;;;;;;;25.70;58.62;102165.56;5008861;28;20053;-32
2022/06/28 08:38:09;;;;;;;7.53;1.30;;;;;;;25.75;57.21;102167.31;5009290;28;20056;-34
2022/06/28 08:40:38;;;;;;;5.55;1.42;;;;;;;25.88;55.87;102171.72;5009539;28;20056;-32
2022/06/28 08:43:07;;;;;;;5.93;1.15;;;;;;;26.20;55.44;102171.59;5009561;28;20056;-33
2022/06/28 08:45:36;;;;;;;5.65;1.48;;;;;;;26.26;55.60;102164.41;5010202;28;20144;-30
2022/06/28 08:48:13;;;;;;;4.88;1.23;;;;;;;26.45;54.62;102155.00;5010587;28;20054;-33
2022/06/28 08:50:45;;;;;;;7.95;1.52;;;;;;;26.49;53.83;102159.63;4991336;28;20047;-30
2022/06/28 08:53:13;;;;;;;;;;;;;;;26.49;51.34;102155.94;5007311;28;20494;-31
2022/06/28 08:55:43;;;;;;;5.53;1.13;;;;;;;26.84;54.85;102153.78;5009928;28;19979;-30
2022/06/28 08:58:11;;;;;;;7.88;2.00;;;;;;;27.05;51.38;102153.38;5009195;28;20049;-29
2022/06/28 09:00:40;;;;;;;5.68;1.13;;;;;;;26.83;51.68;102145.56;5010546;28;20132;-34
2022/06/28 09:03:08;;;;;;;5.85;1.50;;;;;;;26.67;52.29;102146.50;5007667;28;20053;-39
2022/06/28 09:05:36;;;;;;;6.10;1.63;;;;;;;26.98;51.27;102147.50;5009602;28;20037;-32
2022/06/28 09:08:04;;;;;;;4.85;1.23;;;;;;;26.97;51.57;102145.88;5009791;28;20049;-33
2022/06/28 09:10:32;;;;;;;4.95;1.20;;;;;;;27.11;51.51;102137.53;5009859;28;20072;-33
2022/06/28 09:13:20;;;;;;;7.38;1.38;;;;;;;27.27;50.96;102131.69;5009926;28;20538;-37
2022/06/28 09:15:52;;;;;;;4.80;1.30;;;;;;;27.22;51.01;102141.41;5004551;28;20045;-29
2022/06/28 09:18:22;;;;;;;5.82;1.35;;;;;;;27.04;49.69;102129.63;5009024;28;20050;-33
2022/06/28 09:20:55;;;;;;;4.90;1.25;;;;;;;27.09;51.07;102131.38;5010305;28;20053;-34
2022/06/28 09:23:28;;;;;;;6.28;1.30;;;;;;;27.20;49.38;102134.41;5009863;28;20462;-29
2022/06/28 09:25:58;;;;;;;5.22;1.30;;;;;;;26.99;49.44;102126.25;5009230;28;20050;-41
2022/06/28 09:28:29;;;;;;;7.45;1.48;;;;;;;26.84;49.95;102113.66;5009793;28;20054;-34
2022/06/28 09:31:17;;;;;;;5.63;1.40;;;;;;;27.10;48.64;102118.69;5009816;28;20053;-29
2022/06/28 09:33:47;;;;;;;8.43;1.50;;;;;;;27.12;50.03;102126.91;5009777;28;20054;-34
2022/06/28 09:36:16;;;;;;;8.27;1.52;;;;;;;27.02;50.51;102117.72;5009973;28;20081;-31
2022/06/28 09:38:44;;;;;;;6.00;1.17;;;;;;;26.99;50.82;102123.38;5008854;28;20042;-29
2022/06/28 09:41:23;;;;;;;4.25;1.30;;;;;;;27.16;50.01;102116.34;5009079;28;20046;-31
2022/06/28 09:43:57;;;;;;;5.47;1.30;;;;;;;27.22;50.71;102129.13;5009411;28;20056;-34
2022/06/28 09:46:27;;;;;;;4.68;1.30;;;;;;;27.13;49.47;102131.44;5009320;28;20412;-29
2022/06/28 09:48:58;;;;;;;5.75;1.40;;;;;;;26.91;49.98;102127.31;5009007;28;20482;-34
2022/06/28 09:51:29;;;;;;;5.43;1.58;;;;;;;27.05;51.39;102131.28;4999215;28;20073;-39
2022/06/28 09:54:01;;;;;;;5.80;1.20;;;;;;;27.35;50.62;102122.00;5008887;28;20104;-28
2022/06/28 09:56:55;;;;;;;4.50;1.25;;;;;;;27.15;48.89;102117.56;5000796;28;20049;-30
2022/06/28 09:59:27;;;;;;;4.13;1.17;;;;;;;26.91;51.01;102118.72;5008609;28;20073;-35
2022/06/28 10:01:56;;;;;;;4.75;1.23;;;;;;;26.92;50.71;102118.34;5009310;28;20084;-30
2022/06/28 10:04:27;;;;;;;4.85;1.40;;;;;;;26.95;50.10;102122.53;5008863;28;20578;-40
2022/06/28 10:06:55;;;;;;;6.35;1.50;;;;;;;27.23;50.83;102108.69;4998486;28;20136;-31
2022/06/28 10:09:24;;;;;;;6.43;1.63;;;;;;;27.62;50.44;102117.94;5009171;28;20072;-36
2022/06/28 10:17:39;;;;;;;4.82;1.60;;;;;;;28.08;47.00;102109.22;5003905;28;20418;-31
2022/06/28 10:20:10;;;;;;;4.30;1.30;;;;;;;27.97;47.86;102109.06;5012199;28;20041;-38
2022/06/28 10:22:38;;;;;;;8.18;1.70;;;;;;;27.94;47.88;102109.84;5013294;28;20050;-31
2022/06/28 10:25:15;;;;;;;7.05;1.40;;;;;;;28.25;47.68;102117.25;5012790;28;20482;-30
2022/06/28 10:27:48;;;;;;;4.68;1.17;;;;;;;28.47;45.57;102109.75;5012422;28;20052;-39
2022/06/28 10:30:26;;;;;;;5.78;1.27;;;;;;;28.31;46.01;102109.97;5012717;28;20042;-35
2022/06/28 10:32:56;;;;;;;5.10;1.23;;;;;;;28.16;47.14;102101.53;5003398;28;20149;-33
2022/06/28 10:36:01;;;;;;;5.35;1.48;;;;;;;28.17;47.04;102092.53;5011603;28;20535;-29
2022/06/28 10:38:29;;;;;;;4.40;1.00;;;;;;;28.08;47.98;102091.97;5006110;28;20046;-33
2022/06/28 10:41:11;;;;;;;5.40;1.30;;;;;;;28.12;47.50;102102.31;5011258;28;20053;-36
2022/06/28 10:43:50;;;;;;;7.03;1.63;;;;;;;27.91;46.24;102095.44;5012916;28;20052;-33
2022/06/28 10:46:26;;;;;;;8.75;1.70;;;;;;;27.54;47.01;102092.41;5012639;28;20042;-37
2022/06/28 10:49:09;;;;;;;5.63;1.40;;;;;;;27.50;47.60;102098.06;5011752;28;20057;-30
2022/06/28 10:51:43;;;;;;;5.32;1.33;;;;;;;27.61;47.55;102099.09;5013202;28;20133;-30
2022/06/28 10:54:17;;;;;;;6.43;1.55;;;;;;;27.28;47.66;102094.03;5013683;28;20507;-33
2022/06/28 10:56:47;;;;;;;6.10;1.52;;;;;;;26.76;48.81;102094.72;5012581;28;20038;-32
2022/06/28 10:59:16;;;;;;;6.18;1.40;;;;;;;26.55;48.61;102091.44;5013314;28;20491;-34
2022/06/28 11:01:56;;;;;;;5.28;1.40;;;;;;;26.68;50.20;102101.50;5012956;28;20128;-29
2022/06/28 11:04:32;;;;;;;5.15;1.35;;;;;;;26.45;50.98;102095.72;5012746;28;20050;-30
2022/06/28 11:07:07;;;;;;;6.45;1.40;;;;;;;26.46;49.36;102085.09;5012972;28;20045;-29
2022/06/28 11:09:46;;;;;;;6.32;1.17;;;;;;;26.31;48.65;102087.69;5012815;28;20060;-33
2022/06/28 11:12:16;;;;;;;4.30;1.02;;;;;;;26.29;49.56;102090.09;5013048;28;20507;-30
2022/06/28 11:14:50;;;;;;;6.40;1.30;;;;;;;26.19;48.41;102079.22;5013212;28;20049;-29
2022/06/28 11:17:22;;;;;;;6.25;1.35;;;;;;;26.10;49.79;102081.47;5012082;28;20104;-30
2022/06/28 11:19:53;;;;;;;5.05;1.30;;;;;;;26.09;49.82;102082.69;5013186;28;20250;-33
2022/06/28 11:22:22;;;;;;;6.15;1.60;;;;;;;26.12;50.27;102078.25;5012855;28;20100;-36
2022/06/28 11:24:51;;;;;;;5.05;1.55;;;;;;;26.02;51.02;102079.66;5012264;28;20084;-32
2022/06/28 11:27:21;;;;;;;5.80;1.30;;;;;;;26.00;52.05;102080.03;5012158;28;20441;-29
2022/06/28 11:29:53;;;;;;;5.70;1.58;;;;;;;26.01;51.75;102089.44;5013126;28;20060;-30
2022/06/28 11:32:26;;;;;;;7.55;1.40;;;;;;;25.91;52.17;102078.59;5012201;28;20049;-34
2022/06/28 11:34:56;;;;;;;4.75;1.10;;;;;;;25.81;51.95;102085.72;5002813;28;20127;-30
2022/06/28 11:37:24;;;;;;;6.70;1.50;;;;;;;25.86;52.10;102082.59;5011650;28;20056;-30
2022/06/28 11:39:54;;;;;;;7.85;1.58;;;;;;;26.00;51.48;102070.63;5012674;28;20136;-33
2022/06/28 11:42:22;;;;;;;7.00;1.90;;;;;;;25.89;51.12;102072.44;5012254;28;20050;-32
2022/06/28 11:44:51;;;;;;;6.18;1.30;;;;;;;25.86;52.32;102065.44;5011519;28;20054;-27
2022/06/28 11:47:20;;;;;;;6.10;1.40;;;;;;;25.90;52.33;102071.22;5012224;28;20042;-32
2022/06/28 11:50:14;;;;;;;8.77;1.98;;;;;;;26.14;51.64;102072.97;5012640;28;20406;-35
2022/06/28 11:52:52;;;;;;;6.10;1.52;;;;;;;25.89;49.86;102070.41;5011799;28;20180;-34
2022/06/28 11:55:37;;;;;;;6.57;1.40;;;;;;;25.73;51.81;102079.03;5012748;28;20046;-27
2022/06/28 11:58:18;;;;;;;5.35;1.30;;;;;;;25.51;51.76;102076.84;5012097;28;20054;-33